Chester Depot, Vermont
Current Conditions -  °F | °C
As of 3:54 PM on Thursday 23 Oct 2014 (Local Time) from KVSF Reporting Station
Light Rain Light Rain  
Wind Chill: 45°   Ceiling: 1800
Heat Index: 48°   Visibility: 8mi
Dew Point: 44°   Wind: 6mph
Humidity: 86%   Direction: 10°N
Pressure: 29.79"   Gusts: NA
Location:  43.36°N, 72.57°W
Report Text: KVSF 231954Z AUTO 01005KT 8SM -RA BKN018 BKN024 OVC034 09/07 A2979 RMK AO2 RAB08 SLP090 P0000 T00890067
Loading
Personal Weather Stations






























Interactive Weather Map
Tropical Storm Tracking
New forecast layout! Learn more

10-Day Weather Forecast

Advertisements
Track Severe Weather on mobile